createdAt,value
2018-10-04T04:00:54.664Z,79.80
2018-10-04T04:01:27.297Z,79.70
2018-10-04T04:01:59.892Z,79.80
2018-10-04T04:02:32.539Z,79.80
2018-10-04T04:03:05.188Z,79.60
2018-10-04T04:03:37.803Z,79.60
2018-10-04T04:04:10.451Z,79.40
2018-10-04T04:04:43.010Z,79.50
2018-10-04T04:05:15.617Z,79.70
2018-10-04T04:05:48.278Z,79.90
2018-10-04T04:06:20.938Z,79.80
2018-10-04T04:06:53.563Z,79.50
2018-10-04T04:07:26.219Z,79.70
2018-10-04T04:07:58.817Z,79.60
2018-10-04T04:08:31.536Z,79.50
2018-10-04T04:09:07.388Z,79.40
2018-10-04T04:09:40.240Z,79.50
2018-10-04T04:10:12.961Z,79.50
2018-10-04T04:10:45.586Z,79.40
2018-10-04T04:11:18.388Z,79.60
2018-10-04T04:11:51.347Z,79.80
2018-10-04T04:12:24.092Z,79.40
2018-10-04T04:12:56.735Z,79.30
2018-10-04T04:13:29.434Z,79.80
2018-10-04T04:14:02.104Z,79.70
2018-10-04T04:14:34.741Z,79.40
2018-10-04T04:15:08.087Z,79.60
2018-10-04T04:15:40.780Z,79.70
2018-10-04T04:16:13.632Z,79.60
2018-10-04T04:16:46.264Z,79.60
2018-10-04T04:17:18.972Z,79.70
2018-10-04T04:17:51.636Z,79.70
2018-10-04T04:18:24.269Z,79.60
2018-10-04T04:18:56.909Z,79.70
2018-10-04T04:19:29.536Z,79.90
2018-10-04T04:20:02.204Z,79.90
2018-10-04T04:20:35.373Z,79.80
2018-10-04T04:21:08.015Z,79.90
2018-10-04T04:21:40.692Z,79.90
2018-10-04T04:22:13.483Z,79.90
2018-10-04T04:22:46.279Z,79.60
2018-10-04T04:23:19.058Z,79.80
2018-10-04T04:23:52.623Z,79.70
2018-10-04T04:24:25.322Z,79.40
2018-10-04T04:24:58.040Z,79.50
2018-10-04T04:25:30.684Z,79.60
2018-10-04T04:26:03.432Z,79.60
2018-10-04T04:26:36.041Z,79.40
2018-10-04T04:27:08.741Z,79.40
2018-10-04T04:27:41.482Z,79.30
2018-10-04T04:28:14.206Z,79.50
2018-10-04T04:28:47.877Z,79.50
2018-10-04T04:29:20.618Z,79.20
2018-10-04T04:29:53.346Z,79.30
2018-10-04T04:30:26.048Z,79.60
2018-10-04T04:30:58.753Z,79.30
2018-10-04T04:31:31.520Z,79.60
2018-10-04T04:32:04.420Z,79.60
2018-10-04T04:32:37.028Z,79.50
2018-10-04T04:33:09.713Z,79.70
2018-10-04T04:33:42.408Z,79.50
2018-10-04T04:34:15.205Z,79.50
2018-10-04T04:34:47.857Z,79.40
2018-10-04T04:35:20.578Z,79.60
2018-10-04T04:35:53.337Z,79.60
2018-10-04T04:36:26.198Z,79.60
2018-10-04T04:36:59.020Z,79.40
2018-10-04T04:37:31.659Z,79.60
2018-10-04T04:38:04.423Z,79.40
2018-10-04T04:38:37.430Z,79.30
2018-10-04T04:39:10.096Z,79.30
2018-10-04T04:39:42.721Z,79.30
2018-10-04T04:40:15.379Z,79.20
2018-10-04T04:40:48.121Z,79.30
2018-10-04T04:41:21.005Z,79.40
2018-10-04T04:41:53.708Z,79.60
2018-10-04T04:42:26.387Z,79.70
2018-10-04T04:42:59.070Z,79.60
2018-10-04T04:43:31.745Z,79.60
2018-10-04T04:44:04.396Z,79.50
2018-10-04T04:44:37.150Z,80.10
2018-10-04T04:45:12.624Z,79.60
2018-10-04T04:45:45.529Z,79.50
2018-10-04T04:46:18.345Z,79.60
2018-10-04T04:46:51.257Z,79.80
2018-10-04T04:47:23.821Z,79.70
2018-10-04T04:47:56.453Z,79.80
2018-10-04T04:48:29.121Z,79.90
2018-10-04T04:49:01.859Z,80.00
2018-10-04T04:49:34.554Z,79.80
2018-10-04T04:50:07.462Z,80.00
2018-10-04T04:50:40.185Z,79.90
2018-10-04T04:51:13.009Z,80.00
2018-10-04T04:51:45.995Z,80.70
2018-10-04T04:52:18.661Z,79.90
2018-10-04T04:52:51.397Z,79.90
2018-10-04T04:53:32.441Z,80.00
2018-10-04T04:54:05.248Z,79.90
2018-10-04T04:55:42.622Z,79.80
2018-10-04T04:56:15.409Z,80.00
2018-10-04T04:56:48.110Z,79.80
2018-10-04T04:57:20.853Z,79.80
2018-10-04T04:57:54.525Z,80.50
2018-10-04T04:58:27.397Z,80.00
2018-10-04T04:59:00.216Z,80.00
2018-10-04T04:59:33.026Z,79.90
2018-10-04T05:00:05.702Z,79.90
2018-10-04T05:00:39.660Z,79.90
2018-10-04T05:01:12.449Z,79.80
2018-10-04T05:01:45.196Z,79.90
2018-10-04T05:02:17.906Z,79.70
2018-10-04T05:02:50.971Z,79.80
2018-10-04T05:03:24.026Z,79.90
2018-10-04T05:03:56.688Z,79.90
2018-10-04T05:04:29.323Z,80.10
2018-10-04T05:05:02.072Z,80.00
2018-10-04T05:05:34.853Z,80.10
2018-10-04T05:06:07.621Z,80.00
2018-10-04T05:06:40.287Z,79.90
2018-10-04T05:07:12.954Z,79.90
2018-10-04T05:07:45.727Z,80.20
2018-10-04T05:08:18.324Z,80.10
2018-10-04T05:08:51.017Z,79.90
2018-10-04T05:09:25.340Z,79.90
2018-10-04T05:09:58.045Z,79.80
2018-10-04T05:10:31.479Z,79.70
2018-10-04T05:11:04.236Z,79.70
2018-10-04T05:11:36.888Z,79.70
2018-10-04T05:12:09.675Z,79.90
2018-10-04T05:12:42.325Z,79.80
2018-10-04T05:13:15.027Z,79.60
2018-10-04T05:13:47.734Z,79.50
2018-10-04T05:14:20.354Z,79.80
2018-10-04T05:14:53.137Z,79.70
2018-10-04T05:15:25.907Z,79.60
2018-10-04T05:15:58.678Z,79.80
2018-10-04T05:16:31.265Z,80.20
2018-10-04T05:17:03.892Z,79.80
2018-10-04T05:17:36.620Z,79.70
2018-10-04T05:18:09.381Z,79.80
2018-10-04T05:18:42.044Z,80.00
2018-10-04T05:19:14.709Z,79.80
2018-10-04T05:19:47.399Z,79.80
2018-10-04T05:20:20.138Z,79.80
2018-10-04T05:20:52.814Z,79.70
2018-10-04T05:21:25.508Z,79.80
2018-10-04T05:21:58.160Z,79.60
2018-10-04T05:22:31.790Z,79.60
2018-10-04T05:23:04.510Z,79.70
2018-10-04T05:23:37.182Z,79.80
2018-10-04T05:24:09.845Z,79.70
2018-10-04T05:24:42.541Z,79.70
2018-10-04T05:25:15.208Z,79.90
2018-10-04T05:25:47.840Z,79.80
2018-10-04T05:26:20.575Z,79.90
2018-10-04T05:26:53.313Z,79.90
2018-10-04T05:27:25.991Z,79.80
2018-10-04T05:27:58.718Z,79.80
2018-10-04T05:28:31.464Z,79.90
2018-10-04T05:29:04.205Z,79.90
2018-10-04T05:29:36.861Z,79.70
2018-10-04T05:30:09.541Z,79.90
2018-10-04T05:30:42.257Z,79.90
2018-10-04T05:31:14.944Z,80.00
2018-10-04T05:31:47.657Z,79.90
2018-10-04T05:32:21.381Z,79.80
2018-10-04T05:32:54.089Z,79.80
2018-10-04T05:33:26.836Z,79.90
2018-10-04T05:33:59.500Z,80.10
2018-10-04T05:34:32.225Z,80.30
2018-10-04T05:35:04.926Z,80.20
2018-10-04T05:35:37.626Z,80.30
2018-10-04T05:36:10.251Z,80.30
2018-10-04T05:36:42.942Z,80.30
2018-10-04T05:37:15.637Z,80.10
2018-10-04T05:37:48.298Z,80.00
2018-10-04T05:38:21.012Z,80.10
2018-10-04T05:38:53.673Z,80.10
2018-10-04T05:39:26.343Z,80.20
2018-10-04T05:39:59.233Z,80.20
2018-10-04T05:40:31.894Z,80.20
2018-10-04T05:41:04.524Z,80.20
2018-10-04T05:41:37.178Z,80.30
2018-10-04T05:42:09.966Z,80.30
2018-10-04T05:42:42.681Z,80.50
2018-10-04T05:43:15.365Z,80.80
2018-10-04T05:43:48.078Z,80.70
2018-10-04T05:44:20.896Z,80.40
2018-10-04T05:44:53.570Z,80.60
2018-10-04T05:45:26.389Z,80.40
2018-10-04T05:45:59.039Z,80.50
2018-10-04T05:46:31.847Z,80.10
2018-10-04T05:47:04.586Z,79.80
2018-10-04T05:47:37.268Z,79.90
2018-10-04T05:48:09.991Z,79.90
2018-10-04T05:48:42.900Z,80.10
2018-10-04T05:49:15.683Z,80.00
2018-10-04T05:49:48.528Z,79.90
2018-10-04T05:50:21.416Z,79.80
2018-10-04T05:50:54.127Z,79.80
2018-10-04T05:51:26.972Z,80.30
2018-10-04T05:51:59.660Z,80.00
2018-10-04T05:52:32.300Z,80.70
2018-10-04T05:53:05.083Z,80.30
2018-10-04T05:53:37.664Z,80.10
2018-10-04T05:54:10.300Z,80.20
2018-10-04T05:54:43.014Z,80.40
2018-10-04T05:55:15.965Z,80.20
2018-10-04T05:55:48.651Z,80.10
2018-10-04T05:56:21.286Z,80.20
2018-10-04T05:56:53.949Z,80.20
2018-10-04T05:57:26.580Z,80.20
2018-10-04T05:57:59.255Z,80.30
2018-10-04T05:58:31.988Z,80.10
2018-10-04T05:59:04.652Z,80.00
2018-10-04T05:59:37.732Z,80.20
2018-10-04T06:00:29.990Z,80.20
2018-10-04T06:01:02.741Z,80.20
2018-10-04T06:01:35.489Z,80.60
2018-10-04T06:02:08.144Z,80.30
2018-10-04T06:02:40.759Z,80.40
2018-10-04T06:03:13.379Z,80.10
2018-10-04T06:03:46.014Z,80.20
2018-10-04T06:04:18.641Z,80.00
2018-10-04T06:04:51.290Z,80.10
2018-10-04T06:05:23.937Z,80.10
2018-10-04T06:05:56.537Z,80.10
2018-10-04T06:06:29.197Z,80.20
2018-10-04T06:07:01.859Z,80.10
2018-10-04T06:07:34.847Z,80.10
2018-10-04T06:08:07.517Z,79.90
2018-10-04T06:08:40.120Z,79.80
2018-10-04T06:09:12.730Z,80.10
2018-10-04T06:09:45.366Z,80.10
2018-10-04T06:10:17.964Z,80.30
2018-10-04T06:10:51.494Z,80.10
2018-10-04T06:11:24.112Z,80.60
2018-10-04T06:11:56.818Z,80.20
2018-10-04T06:12:29.775Z,80.40
2018-10-04T06:13:02.459Z,80.40
2018-10-04T06:13:35.132Z,80.40
2018-10-04T06:14:07.834Z,80.50
2018-10-04T06:14:40.653Z,80.30
2018-10-04T06:15:13.344Z,80.20
2018-10-04T06:15:45.945Z,80.20
2018-10-04T06:16:18.575Z,80.40
2018-10-04T06:16:51.188Z,80.60
2018-10-04T06:17:23.852Z,80.80
2018-10-04T06:17:56.471Z,80.50
2018-10-04T06:18:29.115Z,80.40
2018-10-04T06:19:01.754Z,80.30
2018-10-04T06:19:34.354Z,80.20
2018-10-04T06:20:07.140Z,80.20
2018-10-04T06:20:40.341Z,80.10
2018-10-04T06:21:13.471Z,80.10
2018-10-04T06:21:46.160Z,80.20
2018-10-04T06:22:18.960Z,80.10
2018-10-04T06:22:51.617Z,80.20
2018-10-04T06:23:24.270Z,80.20
2018-10-04T06:23:56.963Z,80.10
2018-10-04T06:24:29.721Z,80.10
2018-10-04T06:25:02.352Z,80.60
2018-10-04T06:25:34.992Z,80.60
2018-10-04T06:26:07.619Z,80.40
2018-10-04T06:26:40.263Z,80.50
2018-10-04T06:27:12.917Z,80.70
2018-10-04T06:27:45.526Z,80.80
2018-10-04T06:28:18.189Z,80.40
2018-10-04T06:28:50.814Z,80.30
2018-10-04T06:29:23.499Z,80.60
2018-10-04T06:29:56.194Z,80.50
2018-10-04T06:30:28.800Z,80.50
2018-10-04T06:31:01.438Z,80.70
2018-10-04T06:31:34.096Z,80.80
2018-10-04T06:32:06.849Z,80.80
2018-10-04T06:32:39.507Z,80.90
2018-10-04T06:33:12.128Z,81.10
2018-10-04T06:33:44.822Z,81.30
2018-10-04T06:34:17.466Z,81.50
2018-10-04T06:34:50.106Z,80.70
2018-10-04T06:35:22.738Z,80.30
2018-10-04T06:35:55.336Z,80.20
2018-10-04T06:36:28.769Z,80.50
2018-10-04T06:37:01.389Z,80.80
2018-10-04T06:37:34.598Z,80.90
2018-10-04T06:38:07.310Z,80.70
2018-10-04T06:38:39.929Z,80.60
2018-10-04T06:39:12.578Z,80.80
2018-10-04T06:39:45.173Z,80.60
2018-10-04T06:40:17.943Z,80.70
2018-10-04T06:40:50.552Z,80.50
2018-10-04T06:41:23.149Z,80.40
2018-10-04T06:41:55.796Z,80.10
2018-10-04T06:42:28.419Z,80.10
2018-10-04T06:43:01.041Z,80.00
2018-10-04T06:43:33.645Z,80.00
2018-10-04T06:44:06.358Z,79.80
2018-10-04T06:44:38.964Z,79.70
2018-10-04T06:45:11.604Z,80.00
2018-10-04T06:45:44.217Z,79.80
2018-10-04T06:46:16.812Z,79.30
2018-10-04T06:46:49.432Z,78.90
2018-10-04T06:47:22.045Z,79.40
2018-10-04T06:47:54.678Z,78.90
2018-10-04T06:48:27.318Z,78.90
2018-10-04T06:48:59.958Z,78.90
2018-10-04T06:49:32.549Z,78.80
2018-10-04T06:50:05.368Z,78.60
2018-10-04T06:50:37.971Z,78.50
2018-10-04T06:51:10.592Z,78.60
2018-10-04T06:51:43.202Z,78.30
2018-10-04T06:52:15.835Z,77.20
2018-10-04T06:52:48.420Z,77.40
2018-10-04T06:53:21.141Z,77.60
2018-10-04T06:53:53.789Z,77.00
2018-10-04T06:54:26.421Z,76.90
2018-10-04T06:54:59.052Z,77.40
2018-10-04T06:55:31.739Z,77.80
2018-10-04T06:56:04.354Z,78.20
2018-10-04T06:56:37.023Z,77.60
2018-10-04T06:57:09.633Z,77.50
2018-10-04T06:57:42.318Z,76.90
2018-10-04T06:58:14.934Z,76.90
2018-10-04T06:58:47.564Z,77.30
2018-10-04T06:59:20.176Z,77.40
2018-10-04T06:59:52.761Z,77.80
2018-10-04T07:00:25.366Z,77.30
2018-10-04T07:00:58.000Z,76.90
2018-10-04T07:01:30.600Z,77.10
2018-10-04T07:02:03.353Z,77.10
2018-10-04T07:02:35.964Z,77.40
2018-10-04T07:03:08.598Z,76.80
2018-10-04T07:03:41.258Z,76.60
2018-10-04T07:04:13.850Z,76.70
2018-10-04T07:04:46.482Z,76.90
2018-10-04T07:05:19.113Z,77.00
2018-10-04T07:05:51.716Z,77.60
2018-10-04T07:06:24.390Z,76.80
2018-10-04T07:06:57.059Z,78.00
2018-10-04T07:07:29.678Z,78.50
2018-10-04T07:08:02.280Z,78.80
2018-10-04T07:08:34.896Z,77.90
2018-10-04T07:09:08.749Z,77.80
2018-10-04T07:09:41.352Z,77.60
2018-10-04T07:10:14.020Z,77.80
2018-10-04T07:10:46.576Z,77.90
2018-10-04T07:11:19.173Z,77.10
2018-10-04T07:11:51.879Z,77.30
2018-10-04T07:12:24.515Z,77.90
2018-10-04T07:12:57.178Z,78.40
2018-10-04T07:13:29.802Z,78.80
2018-10-04T07:14:02.419Z,79.00
2018-10-04T07:14:35.029Z,78.50
2018-10-04T07:15:07.669Z,77.80
2018-10-04T07:15:40.275Z,77.90
2018-10-04T07:16:12.909Z,77.50
2018-10-04T07:16:45.525Z,77.60
2018-10-04T07:17:18.165Z,77.40
2018-10-04T07:17:50.783Z,76.80
2018-10-04T07:18:23.392Z,76.90
2018-10-04T07:18:56.034Z,77.00
2018-10-04T07:19:28.625Z,76.50
2018-10-04T07:20:01.252Z,76.40
2018-10-04T07:20:34.230Z,76.70
2018-10-04T07:21:06.831Z,76.50
2018-10-04T07:21:39.396Z,77.00
2018-10-04T07:22:11.996Z,76.70
2018-10-04T07:22:44.633Z,76.90
2018-10-04T07:23:17.508Z,76.10
2018-10-04T07:23:50.097Z,75.90
2018-10-04T07:24:22.701Z,76.60
2018-10-04T07:24:55.353Z,76.80
2018-10-04T07:25:27.967Z,76.30
2018-10-04T07:26:00.587Z,76.00
2018-10-04T07:26:33.261Z,76.20
2018-10-04T07:27:05.957Z,75.80
2018-10-04T07:27:38.725Z,76.70
2018-10-04T07:28:11.352Z,76.40
2018-10-04T07:28:43.955Z,76.70
2018-10-04T07:29:16.589Z,77.10
2018-10-04T07:29:49.214Z,76.90
2018-10-04T07:30:21.808Z,76.90
2018-10-04T07:30:54.490Z,77.20
2018-10-04T07:31:27.144Z,77.10
2018-10-04T07:31:59.795Z,76.60
2018-10-04T07:32:32.480Z,76.70
2018-10-04T07:33:05.101Z,76.70
2018-10-04T07:33:37.796Z,76.50
2018-10-04T07:34:10.417Z,76.30
2018-10-04T07:34:43.100Z,76.70
2018-10-04T07:35:15.718Z,76.80
2018-10-04T07:35:48.460Z,76.90
2018-10-04T07:36:21.132Z,76.40
2018-10-04T07:36:53.768Z,76.00
2018-10-04T07:37:26.470Z,76.00
2018-10-04T07:37:59.036Z,76.10
2018-10-04T07:38:31.742Z,76.00
2018-10-04T07:39:06.745Z,76.20
2018-10-04T07:39:39.383Z,76.40
2018-10-04T07:40:12.064Z,76.90
2018-10-04T07:40:44.738Z,77.00
2018-10-04T07:41:17.362Z,77.00
2018-10-04T07:41:49.996Z,76.40
2018-10-04T07:42:22.757Z,76.40
2018-10-04T07:42:55.293Z,75.90
2018-10-04T07:43:27.915Z,75.40
2018-10-04T07:44:00.521Z,75.20
2018-10-04T07:44:33.160Z,75.50
2018-10-04T07:45:05.801Z,75.80
2018-10-04T07:45:38.468Z,75.90
2018-10-04T07:46:11.091Z,76.10
2018-10-04T07:46:43.720Z,75.60
2018-10-04T07:47:16.338Z,75.70
2018-10-04T07:47:48.978Z,75.30
2018-10-04T07:48:21.645Z,75.30
2018-10-04T07:48:54.275Z,75.00
2018-10-04T07:49:27.011Z,75.30
2018-10-04T07:49:59.741Z,75.40
2018-10-04T07:50:32.348Z,74.90
2018-10-04T07:51:05.001Z,74.70
2018-10-04T07:51:37.658Z,74.80
2018-10-04T07:52:10.304Z,74.60
2018-10-04T07:52:42.941Z,75.20
2018-10-04T07:53:15.537Z,74.90
2018-10-04T07:53:48.156Z,74.90
2018-10-04T07:54:20.786Z,75.00
2018-10-04T07:54:53.398Z,75.10
2018-10-04T07:55:26.061Z,75.70
2018-10-04T07:55:58.712Z,75.00
2018-10-04T07:56:31.336Z,74.70
2018-10-04T07:57:03.961Z,74.50
2018-10-04T07:57:36.703Z,74.70
2018-10-04T07:58:09.327Z,74.80
2018-10-04T07:58:41.948Z,74.80
2018-10-04T07:59:14.568Z,75.00
2018-10-04T07:59:47.183Z,75.30
2018-10-04T08:00:20.043Z,75.50
2018-10-04T08:00:52.671Z,75.70
2018-10-04T08:01:25.292Z,75.50
2018-10-04T08:01:57.904Z,75.80
2018-10-04T08:02:30.649Z,75.30
2018-10-04T08:03:03.298Z,75.90
2018-10-04T08:03:35.917Z,75.50
2018-10-04T08:04:08.530Z,75.30
2018-10-04T08:04:41.184Z,74.50
2018-10-04T08:05:13.797Z,74.60
2018-10-04T08:05:46.448Z,74.50
2018-10-04T08:06:19.218Z,74.40
2018-10-04T08:06:51.816Z,74.20
2018-10-04T08:07:24.376Z,74.30
2018-10-04T08:07:57.008Z,74.50
2018-10-04T08:08:29.635Z,74.70
2018-10-04T08:09:02.328Z,75.10
2018-10-04T08:09:34.948Z,75.00
2018-10-04T08:10:07.567Z,74.40
2018-10-04T08:10:40.169Z,74.00
2018-10-04T08:11:12.800Z,74.80
2018-10-04T08:11:45.456Z,74.20
2018-10-04T08:12:18.061Z,74.20
2018-10-04T08:12:50.673Z,74.50
2018-10-04T08:13:23.303Z,74.30
2018-10-04T08:13:55.916Z,74.00
2018-10-04T08:14:28.548Z,74.60
2018-10-04T08:15:01.187Z,74.30
2018-10-04T08:15:33.833Z,74.30
2018-10-04T08:16:06.612Z,74.60
2018-10-04T08:16:39.260Z,73.80
2018-10-04T08:17:11.941Z,73.60
2018-10-04T08:17:44.559Z,73.50
2018-10-04T08:18:17.168Z,73.70
2018-10-04T08:18:49.816Z,73.80
2018-10-04T08:19:22.433Z,74.00
2018-10-04T08:19:55.068Z,74.30
2018-10-04T08:20:27.711Z,74.60
2018-10-04T08:21:00.344Z,74.80
2018-10-04T08:21:32.993Z,74.40
2018-10-04T08:22:05.612Z,74.50
2018-10-04T08:22:38.280Z,73.80
2018-10-04T08:23:10.921Z,74.40
2018-10-04T08:23:43.520Z,74.20
2018-10-04T08:24:16.124Z,74.90
2018-10-04T08:24:48.761Z,75.10
2018-10-04T08:25:21.380Z,74.90
2018-10-04T08:25:54.013Z,74.50
2018-10-04T08:26:26.669Z,74.00
2018-10-04T08:26:59.341Z,73.60
2018-10-04T08:27:31.959Z,73.60
2018-10-04T08:28:04.637Z,73.70
2018-10-04T08:28:37.236Z,74.00
2018-10-04T08:29:09.926Z,73.50
2018-10-04T08:29:42.587Z,73.40
2018-10-04T08:30:15.234Z,73.70
2018-10-04T08:30:47.849Z,73.90
2018-10-04T08:31:20.479Z,73.40
2018-10-04T08:31:53.113Z,73.20
2018-10-04T08:32:25.723Z,73.00
2018-10-04T08:32:58.336Z,73.30
2018-10-04T08:33:30.968Z,73.10
2018-10-04T08:34:03.624Z,73.50
2018-10-04T08:34:36.284Z,74.40
2018-10-04T08:35:08.949Z,74.50
2018-10-04T08:35:41.616Z,75.00
2018-10-04T08:36:14.236Z,74.60
2018-10-04T08:36:46.856Z,73.70
2018-10-04T08:37:19.471Z,73.60
2018-10-04T08:37:52.108Z,73.20
2018-10-04T08:38:24.716Z,73.60
2018-10-04T08:38:57.420Z,73.90
2018-10-04T08:39:30.032Z,73.40
2018-10-04T08:40:02.768Z,73.30
2018-10-04T08:40:35.387Z,72.50
2018-10-04T08:41:07.976Z,72.90
2018-10-04T08:41:40.588Z,72.70
2018-10-04T08:42:13.265Z,72.70
2018-10-04T08:42:45.832Z,72.10
2018-10-04T08:43:18.459Z,72.10
2018-10-04T08:43:51.084Z,71.60
2018-10-04T08:44:23.764Z,71.50
2018-10-04T08:44:56.435Z,71.40
2018-10-04T08:45:29.242Z,71.80
2018-10-04T08:46:02.533Z,72.20
2018-10-04T08:46:35.201Z,72.50
2018-10-04T08:47:08.189Z,72.50
2018-10-04T08:47:40.880Z,72.30
2018-10-04T08:48:13.553Z,72.30
2018-10-04T08:48:46.200Z,72.30
2018-10-04T08:49:18.829Z,73.10
2018-10-04T08:49:51.552Z,72.20
2018-10-04T08:50:24.200Z,71.50
2018-10-04T08:50:57.100Z,70.90
2018-10-04T08:51:35.405Z,71.40
2018-10-04T08:52:13.553Z,71.90
2018-10-04T08:52:50.879Z,71.90
2018-10-04T08:53:23.512Z,71.80
2018-10-04T08:53:56.182Z,71.80
2018-10-04T08:54:30.692Z,72.50
2018-10-04T08:55:09.096Z,71.30
2018-10-04T08:55:41.729Z,71.80
2018-10-04T08:56:14.364Z,71.60
2018-10-04T08:56:46.987Z,71.00
2018-10-04T08:57:19.674Z,71.50
2018-10-04T08:57:52.715Z,71.10
2018-10-04T08:58:25.380Z,71.30
2018-10-04T08:58:58.049Z,71.10
2018-10-04T08:59:30.789Z,70.30
2018-10-04T09:00:03.432Z,70.00
2018-10-04T09:00:36.087Z,70.10
2018-10-04T09:01:08.703Z,70.40
2018-10-04T09:01:41.329Z,70.50
2018-10-04T09:02:13.928Z,70.90
2018-10-04T09:02:46.667Z,71.20
2018-10-04T09:03:19.988Z,71.30
2018-10-04T09:03:58.281Z,70.90
2018-10-04T09:04:31.101Z,71.50
2018-10-04T09:05:03.843Z,71.50
2018-10-04T09:05:36.490Z,71.20
2018-10-04T09:06:09.112Z,70.90
2018-10-04T09:06:41.740Z,70.90
2018-10-04T09:07:14.372Z,70.90
2018-10-04T09:07:47.059Z,71.40
2018-10-04T09:08:19.684Z,72.30
2018-10-04T09:08:52.405Z,71.40
2018-10-04T09:09:25.049Z,71.80
2018-10-04T09:09:59.196Z,72.80
2018-10-04T09:10:31.830Z,73.10
2018-10-04T09:11:04.613Z,72.70
2018-10-04T09:11:37.232Z,72.30
2018-10-04T09:12:09.937Z,72.80
2018-10-04T09:12:42.620Z,73.10
2018-10-04T09:13:15.252Z,73.40
2018-10-04T09:13:48.009Z,73.40
2018-10-04T09:14:20.603Z,73.00
2018-10-04T09:14:53.215Z,73.00
2018-10-04T09:15:25.832Z,72.40
2018-10-04T09:15:58.460Z,71.90
2018-10-04T09:16:31.131Z,72.40
2018-10-04T09:17:03.768Z,73.10
2018-10-04T09:17:36.365Z,71.70
2018-10-04T09:18:09.083Z,71.70
2018-10-04T09:18:41.693Z,72.10
2018-10-04T09:19:14.336Z,71.40
2018-10-04T09:19:46.968Z,71.60
2018-10-04T09:20:19.589Z,71.60
2018-10-04T09:20:52.219Z,71.70
2018-10-04T09:21:24.842Z,72.00
2018-10-04T09:21:57.513Z,71.40
2018-10-04T09:22:30.161Z,71.50
2018-10-04T09:23:02.787Z,71.60
2018-10-04T09:23:35.645Z,71.40
2018-10-04T09:24:08.260Z,70.60
2018-10-04T09:24:40.869Z,70.50
2018-10-04T09:25:13.776Z,71.70
2018-10-04T09:25:46.452Z,71.90
2018-10-04T09:26:19.105Z,72.40
2018-10-04T09:26:51.709Z,71.40
2018-10-04T09:27:24.364Z,71.60
2018-10-04T09:27:56.976Z,71.30
2018-10-04T09:28:29.629Z,72.20
2018-10-04T09:29:07.913Z,72.00
2018-10-04T09:29:46.102Z,72.00
2018-10-04T09:30:24.411Z,71.40
2018-10-04T09:31:02.664Z,71.00
2018-10-04T09:31:37.448Z,71.20
2018-10-04T09:32:10.220Z,71.40
2018-10-04T09:32:42.797Z,71.70
2018-10-04T09:33:15.421Z,71.90
2018-10-04T09:33:48.029Z,71.40
2018-10-04T09:34:21.316Z,71.30
2018-10-04T09:34:53.932Z,70.80
2018-10-04T09:35:28.630Z,70.20
2018-10-04T09:36:01.284Z,70.40
2018-10-04T09:36:33.928Z,70.50
2018-10-04T09:37:08.108Z,70.60
2018-10-04T09:37:40.823Z,70.90
2018-10-04T09:38:13.477Z,71.10
2018-10-04T09:38:46.119Z,71.10
2018-10-04T09:39:18.789Z,71.30
2018-10-04T09:39:51.413Z,70.90
2018-10-04T09:40:24.045Z,71.00
2018-10-04T09:40:56.768Z,71.60
2018-10-04T09:41:29.429Z,71.00
2018-10-04T09:42:02.067Z,71.40
2018-10-04T09:42:36.824Z,71.60
2018-10-04T09:43:09.485Z,71.20
2018-10-04T09:43:42.185Z,71.50
2018-10-04T09:44:14.848Z,72.30
2018-10-04T09:44:47.557Z,72.60
2018-10-04T09:45:20.228Z,72.50
2018-10-04T09:45:52.891Z,72.70
2018-10-04T09:46:25.589Z,72.10
2018-10-04T09:46:58.304Z,72.40
2018-10-04T09:47:30.973Z,72.00
2018-10-04T09:48:03.765Z,72.30
2018-10-04T09:48:36.414Z,72.70
2018-10-04T09:49:09.037Z,72.30
2018-10-04T09:49:41.681Z,72.00
2018-10-04T09:50:14.303Z,72.20
2018-10-04T09:50:46.962Z,72.60
2018-10-04T09:51:25.236Z,72.00
2018-10-04T09:52:00.789Z,72.30
2018-10-04T09:52:35.448Z,72.70
2018-10-04T09:53:08.503Z,72.50
2018-10-04T09:53:46.732Z,72.10
2018-10-04T09:54:24.866Z,72.90
2018-10-04T09:55:03.327Z,72.70
2018-10-04T09:55:41.617Z,73.20
2018-10-04T09:56:19.944Z,73.00
2018-10-04T09:56:52.630Z,72.20
2018-10-04T09:57:30.941Z,71.90
2018-10-04T09:58:03.599Z,71.50
2018-10-04T09:58:36.241Z,71.80
2018-10-04T09:59:08.925Z,70.70
2018-10-04T09:59:41.679Z,70.50
2018-10-04T10:00:19.880Z,70.50
2018-10-04T10:00:58.138Z,71.40
2018-10-04T10:01:36.520Z,71.40
2018-10-04T10:02:15.360Z,71.90
2018-10-04T10:02:58.605Z,72.00
2018-10-04T10:03:31.289Z,71.20
2018-10-04T10:04:04.852Z,71.90
2018-10-04T10:04:37.469Z,72.30
2018-10-04T10:05:11.401Z,71.60
2018-10-04T10:05:44.032Z,71.30
2018-10-04T10:06:16.654Z,72.00
2018-10-04T10:06:49.335Z,71.70
2018-10-04T10:07:25.768Z,72.20
2018-10-04T10:07:58.451Z,72.60
2018-10-04T10:08:31.256Z,72.70
2018-10-04T10:09:06.813Z,71.80
2018-10-04T10:09:39.512Z,71.50
2018-10-04T10:10:12.290Z,71.90
2018-10-04T10:10:44.932Z,72.40
2018-10-04T10:11:17.515Z,72.10
2018-10-04T10:11:50.193Z,71.50
2018-10-04T10:12:22.819Z,71.00
2018-10-04T10:12:55.481Z,70.90
2018-10-04T10:13:28.135Z,70.50
2018-10-04T10:14:00.773Z,70.80
2018-10-04T10:14:33.524Z,70.30
2018-10-04T10:15:06.216Z,69.80
2018-10-04T10:15:38.873Z,69.60
2018-10-04T10:16:11.516Z,70.20
2018-10-04T10:16:44.140Z,70.40
2018-10-04T10:17:16.768Z,70.50
2018-10-04T10:17:49.356Z,71.20
2018-10-04T10:18:21.996Z,71.10
2018-10-04T10:18:54.604Z,71.10
2018-10-04T10:19:27.256Z,71.50
2018-10-04T10:19:59.841Z,71.30
2018-10-04T10:20:32.463Z,71.20
2018-10-04T10:21:05.222Z,70.60
2018-10-04T10:21:37.784Z,71.00
2018-10-04T10:22:10.497Z,70.80
2018-10-04T10:22:43.116Z,70.90
2018-10-04T10:23:15.780Z,70.70
2018-10-04T10:23:48.393Z,70.70
2018-10-04T10:24:20.987Z,71.50
2018-10-04T10:24:53.609Z,71.70
2018-10-04T10:25:26.239Z,70.90
2018-10-04T10:25:58.836Z,71.00
2018-10-04T10:26:31.460Z,71.10
2018-10-04T10:27:04.048Z,71.00
2018-10-04T10:27:36.676Z,70.70
2018-10-04T10:28:09.272Z,71.30
2018-10-04T10:28:41.903Z,71.30
2018-10-04T10:29:14.520Z,71.30
2018-10-04T10:29:47.142Z,71.90
2018-10-04T10:30:19.782Z,72.30
2018-10-04T10:30:52.393Z,71.80
2018-10-04T10:31:25.048Z,71.00
2018-10-04T10:31:57.704Z,71.90
2018-10-04T10:32:30.299Z,71.60
2018-10-04T10:33:03.516Z,71.70
2018-10-04T10:33:36.131Z,71.60
2018-10-04T10:34:08.728Z,71.50
2018-10-04T10:34:41.411Z,71.30
2018-10-04T10:35:13.985Z,71.20
2018-10-04T10:35:46.575Z,70.70
2018-10-04T10:36:19.216Z,70.70
2018-10-04T10:36:51.820Z,70.50
2018-10-04T10:37:24.477Z,71.50
2018-10-04T10:37:57.045Z,71.20
2018-10-04T10:38:29.658Z,71.00
2018-10-04T10:39:02.348Z,70.90
2018-10-04T10:39:35.001Z,71.30
2018-10-04T10:40:08.570Z,69.90
2018-10-04T10:40:41.100Z,69.50
2018-10-04T10:41:13.716Z,69.90
2018-10-04T10:41:46.342Z,70.70
2018-10-04T10:42:18.948Z,70.10
2018-10-04T10:42:51.624Z,70.50
2018-10-04T10:43:24.225Z,70.70
2018-10-04T10:43:56.843Z,70.20
2018-10-04T10:44:29.466Z,70.80
2018-10-04T10:45:02.100Z,70.70
2018-10-04T10:45:34.744Z,70.70
2018-10-04T10:46:07.417Z,70.80
2018-10-04T10:46:40.024Z,70.20
2018-10-04T10:47:12.647Z,69.80
2018-10-04T10:47:45.256Z,69.40
2018-10-04T10:48:18.131Z,69.20
2018-10-04T10:48:50.744Z,69.60
2018-10-04T10:49:23.371Z,69.90
2018-10-04T10:49:55.999Z,70.10
2018-10-04T10:50:28.647Z,70.00
2018-10-04T10:51:01.276Z,70.00
2018-10-04T10:51:33.942Z,69.70
2018-10-04T10:52:06.576Z,69.60
2018-10-04T10:52:39.178Z,69.40
2018-10-04T10:53:11.843Z,69.60
2018-10-04T10:53:44.489Z,69.70
2018-10-04T10:54:17.132Z,69.60
2018-10-04T10:54:49.732Z,69.00
2018-10-04T10:55:22.345Z,70.00
2018-10-04T10:55:54.981Z,69.70
2018-10-04T10:56:27.656Z,70.40
2018-10-04T10:57:00.271Z,70.20
2018-10-04T10:57:33.399Z,70.70
2018-10-04T10:58:06.028Z,70.90
2018-10-04T10:58:38.624Z,70.30
2018-10-04T10:59:11.275Z,70.30
2018-10-04T10:59:43.905Z,70.10
2018-10-04T11:00:16.556Z,69.70
2018-10-04T11:00:49.357Z,70.00
2018-10-04T11:01:21.976Z,70.20
2018-10-04T11:01:54.845Z,71.10
2018-10-04T11:02:27.956Z,70.50
2018-10-04T11:03:00.720Z,70.00
2018-10-04T11:03:33.407Z,70.20
2018-10-04T11:04:06.313Z,70.60
2018-10-04T11:04:39.088Z,69.70
2018-10-04T11:05:11.701Z,69.90
2018-10-04T11:05:44.349Z,69.40